Lewiston, ID

10:52 AM PDT ye 24 March, 2017 (GMT -0700)
Normal Hill | | Change Station

Elev 879 ft 46.41 °N, 117.02 °W | Updated 10 seconds ago

Grandaparte Nubizita
Grandaparte Nubizita
50.9 °F
Feels Like 50.9 °F
N
3.0
Vento Variema Vento from SSE

Hodie
High -- | Low -- °F
--% Chance of Precip.
Yesterday
High -- | Low -- °F
Precip. -- in
Presuro 29.91 in
Videbleso 10.0 milii
Clouds Nubizita 6500 ft
Rosifopunto 39 °F
Humideso 65%
Rainfall 0.00 in
Snow Depth Not available.
6:42 AM 7:06 PM
Waning Crescent, 14% visible
METAR KLWS 241656Z 12005KT 10SM OVC065 07/02 A2990 RMK AO2 SLP129 T00720017
Presuro 29.91 in
Videbleso 10.0 milii
Clouds Nubizita 6500 ft
Rosifopunto 39 °F
Humideso 65%
Rainfall 0.00 in
Snow Depth Not available.
6:42 AM 7:06 PM
Waning Crescent, 14% visible
METAR KLWS 241656Z 12005KT 10SM OVC065 07/02 A2990 RMK AO2 SLP129 T00720017

Get Severe Weather Alerts

Thanks for signing up!

Be on the lookout for a verification email in your inbox.

You'll start receiving the daily forecast at 8 AM.

×

10-Day Weather Forecast

Almanac

Astronomy

Mar. 24, 2017 Rise Set
Actual Time
Civil Twilight
Nautical Twilight
Astronomical Twilight
Moon
Length Of Visible Light
Length of Day
Tomorrow will be .
, % of the Moon is Illuminated

Today's Extremes

State Highs State Lows

Community

WunderPhotos

Upload Photos

1,962,540 photos uploaded!

WunderBlog® & News

Nearby

Air Quality

  Air Quality AQ Index Pollutant
Not available.

Snow Depth

Station Depth Elevation

Earthquake Activity

City Distance Mag. Time & Date
Minimum magnitude displayed is 2.5.

Earthquake Activity

City Distance Mag. Time & Date
Minimum magnitude displayed is 2.5.

Coastal Water Temperatures

Loko Temperaturo

Stations

Nearby Weather Stations

Station Location Temp Ventokoldeso Rosifopunto Humideso Vento Precip. Elev Aktualigita Type
                   

Watches & Warnings

There are currently no watches in effect.